createdAt,value
2018-10-06T00:01:36.811Z,14.66
2018-10-06T00:06:39.875Z,14.80
2018-10-06T00:11:42.955Z,14.79
2018-10-06T00:16:46.018Z,14.67
2018-10-06T00:21:49.121Z,14.56
2018-10-06T00:26:52.200Z,14.61
2018-10-06T00:31:55.272Z,14.56
2018-10-06T00:36:58.312Z,14.46
2018-10-06T00:42:01.374Z,14.48
2018-10-06T00:47:04.535Z,14.50
2018-10-06T00:52:07.661Z,14.48
2018-10-06T00:57:10.720Z,14.40
2018-10-06T01:02:14.120Z,14.23
2018-10-06T01:07:17.462Z,14.13
2018-10-06T01:12:21.935Z,14.05
2018-10-06T01:17:25.348Z,13.99
2018-10-06T01:22:28.767Z,13.93
2018-10-06T01:27:31.855Z,13.85
2018-10-06T01:32:34.917Z,13.82
2018-10-06T01:37:37.964Z,13.85
2018-10-06T01:42:41.020Z,13.80
2018-10-06T01:47:44.088Z,13.74
2018-10-06T01:52:47.141Z,13.71
2018-10-06T01:57:50.194Z,13.53
2018-10-06T02:02:53.235Z,13.53
2018-10-06T02:07:56.319Z,13.54
2018-10-06T02:12:59.355Z,13.64
2018-10-06T02:18:02.458Z,13.69
2018-10-06T02:23:05.739Z,13.74
2018-10-06T02:28:08.796Z,13.70
2018-10-06T02:33:11.886Z,13.67
2018-10-06T02:38:14.979Z,13.65
2018-10-06T02:43:18.052Z,13.58
2018-10-06T02:48:21.191Z,13.51
2018-10-06T02:53:24.271Z,13.51
2018-10-06T02:58:27.331Z,13.50
2018-10-06T03:03:30.416Z,13.48
2018-10-06T03:08:33.495Z,13.44
2018-10-06T03:13:36.818Z,13.47
2018-10-06T03:18:39.904Z,13.51
2018-10-06T03:23:42.958Z,13.50
2018-10-06T03:28:46.068Z,13.56
2018-10-06T03:33:49.144Z,13.63
2018-10-06T03:38:52.223Z,13.69
2018-10-06T03:43:55.315Z,13.72
2018-10-06T03:48:58.412Z,13.70
2018-10-06T04:02:01.612Z,13.51
2018-10-06T04:07:04.732Z,13.58
2018-10-06T04:12:07.858Z,13.60
2018-10-06T04:17:10.940Z,13.57
2018-10-06T04:22:14.034Z,13.49
2018-10-06T04:27:17.043Z,13.42
2018-10-06T04:32:20.136Z,13.37
2018-10-06T04:37:23.208Z,13.36
2018-10-06T04:42:26.479Z,13.35
2018-10-06T04:47:29.583Z,13.33
2018-10-06T04:52:32.654Z,13.35
2018-10-06T04:57:35.713Z,13.28
2018-10-06T05:02:38.911Z,13.18
2018-10-06T05:07:42.115Z,13.17
2018-10-06T05:12:45.223Z,13.14
2018-10-06T05:17:48.279Z,13.13
2018-10-06T05:22:51.684Z,13.17
2018-10-06T05:27:56.060Z,13.20
2018-10-06T05:33:00.263Z,13.16
2018-10-06T05:38:03.345Z,13.05
2018-10-06T05:43:06.518Z,12.96
2018-10-06T05:48:09.640Z,12.89
2018-10-06T05:53:12.696Z,12.93
2018-10-06T05:58:15.724Z,12.97
2018-10-06T06:03:18.795Z,13.04
2018-10-06T06:08:21.855Z,13.15
2018-10-06T06:13:24.903Z,13.27
2018-10-06T06:18:27.953Z,13.40
2018-10-06T06:23:31.016Z,13.52
2018-10-06T06:28:34.123Z,13.63
2018-10-06T06:33:37.198Z,13.75
2018-10-06T06:38:40.236Z,13.84
2018-10-06T06:43:43.360Z,13.90
2018-10-06T06:48:46.448Z,13.98
2018-10-06T06:53:49.488Z,14.09
2018-10-06T06:58:52.651Z,14.24
2018-10-06T07:03:55.699Z,14.39
2018-10-06T07:08:58.719Z,14.56
2018-10-06T07:14:01.751Z,14.75
2018-10-06T07:19:04.953Z,14.91
2018-10-06T07:24:08.001Z,15.07
2018-10-06T07:29:11.076Z,15.24
2018-10-06T07:34:14.123Z,15.42
2018-10-06T07:39:17.169Z,15.64
2018-10-06T07:44:20.214Z,15.91
2018-10-06T07:49:23.319Z,16.22
2018-10-06T07:54:26.356Z,16.52
2018-10-06T07:59:29.467Z,16.74
2018-10-06T08:04:32.864Z,17.04
2018-10-06T08:09:35.887Z,17.33
2018-10-06T08:14:38.938Z,17.58
2018-10-06T08:19:41.978Z,17.81
2018-10-06T08:24:45.032Z,18.04
2018-10-06T08:29:48.161Z,18.23
2018-10-06T08:34:51.206Z,18.33
2018-10-06T08:39:54.231Z,18.50
2018-10-06T08:44:57.306Z,18.60
2018-10-06T08:50:00.345Z,18.82
2018-10-06T08:55:03.403Z,19.06
2018-10-06T09:00:06.572Z,19.21
2018-10-06T09:05:09.632Z,19.29
2018-10-06T09:10:12.674Z,19.40
2018-10-06T09:15:15.706Z,19.51
2018-10-06T09:20:19.099Z,19.66
2018-10-06T09:25:22.173Z,19.86
2018-10-06T09:30:25.227Z,19.98
2018-10-06T09:35:28.259Z,20.08
2018-10-06T09:40:31.300Z,20.27
2018-10-06T09:45:34.347Z,20.37
2018-10-06T09:50:37.391Z,20.65
2018-10-06T09:55:40.550Z,20.77
2018-10-06T10:00:49.075Z,20.93
2018-10-06T10:05:54.171Z,21.09
2018-10-06T10:10:57.270Z,21.25
2018-10-06T10:16:00.323Z,21.30
2018-10-06T10:21:03.420Z,21.39
2018-10-06T10:26:06.687Z,21.56
2018-10-06T10:31:09.819Z,21.74
2018-10-06T10:36:13.018Z,21.77
2018-10-06T10:41:16.940Z,22.00
2018-10-06T10:46:20.372Z,22.14
2018-10-06T10:51:25.085Z,22.29
2018-10-06T10:56:29.061Z,22.51
2018-10-06T11:01:32.965Z,22.60
2018-10-06T11:06:36.039Z,22.77
2018-10-06T11:11:40.222Z,23.02
2018-10-06T11:16:44.035Z,23.12
2018-10-06T11:21:47.577Z,23.20
2018-10-06T11:26:50.656Z,23.30
2018-10-06T11:31:53.816Z,23.49
2018-10-06T11:36:57.030Z,23.55
2018-10-06T11:42:00.307Z,23.70
2018-10-06T11:47:03.492Z,23.87
2018-10-06T11:52:07.519Z,24.12
2018-10-06T11:57:10.699Z,24.28
2018-10-06T12:02:13.820Z,24.32
2018-10-06T12:07:16.939Z,24.47
2018-10-06T12:12:20.064Z,24.47
2018-10-06T12:17:23.240Z,24.63
2018-10-06T12:22:26.308Z,24.77
2018-10-06T12:27:29.381Z,24.89
2018-10-06T12:32:32.448Z,24.98
2018-10-06T12:37:35.495Z,25.19
2018-10-06T12:42:39.056Z,25.33
2018-10-06T12:47:42.369Z,25.41
2018-10-06T12:52:45.468Z,25.30
2018-10-06T12:57:48.549Z,25.40
2018-10-06T13:02:51.692Z,25.39
2018-10-06T13:07:54.863Z,25.26
2018-10-06T13:12:57.976Z,25.43
2018-10-06T13:18:02.387Z,25.68
2018-10-06T13:23:05.575Z,25.88
2018-10-06T13:28:08.693Z,25.94
2018-10-06T13:33:11.788Z,25.92
2018-10-06T13:38:14.895Z,26.00
2018-10-06T13:43:18.004Z,26.08
2018-10-06T13:48:21.178Z,26.02
2018-10-06T13:53:24.290Z,26.08
2018-10-06T13:58:27.367Z,26.10
2018-10-06T14:03:30.469Z,26.11
2018-10-06T14:08:33.556Z,26.04
2018-10-06T14:13:36.659Z,25.97
2018-10-06T14:18:39.767Z,26.04
2018-10-06T14:23:42.816Z,26.05
2018-10-06T14:28:45.871Z,26.07
2018-10-06T14:33:48.937Z,26.13
2018-10-06T14:38:52.011Z,26.13
2018-10-06T14:43:55.072Z,26.16
2018-10-06T14:48:58.167Z,25.98
2018-10-06T14:54:01.259Z,25.91
2018-10-06T14:59:04.503Z,25.92
2018-10-06T15:04:07.584Z,25.88
2018-10-06T15:09:11.280Z,25.88
2018-10-06T15:14:14.352Z,25.93
2018-10-06T15:19:17.423Z,25.85
2018-10-06T15:24:20.563Z,25.66
2018-10-06T15:29:23.645Z,25.61
2018-10-06T15:34:26.703Z,25.58
2018-10-06T15:39:29.777Z,25.62
2018-10-06T15:44:32.847Z,25.83
2018-10-06T15:49:35.911Z,25.75
2018-10-06T15:54:38.999Z,25.75
2018-10-06T15:59:42.133Z,25.57
2018-10-06T16:04:45.304Z,25.24
2018-10-06T16:09:48.404Z,24.94
2018-10-06T16:14:51.511Z,24.72
2018-10-06T16:19:54.563Z,24.53
2018-10-06T16:24:57.619Z,24.35
2018-10-06T16:30:00.703Z,24.21
2018-10-06T16:35:03.904Z,23.85
2018-10-06T16:40:07.048Z,23.72
2018-10-06T16:45:10.203Z,23.51
2018-10-06T16:50:13.299Z,23.42
2018-10-06T16:55:16.352Z,23.32
2018-10-06T17:00:19.521Z,23.17
2018-10-06T17:05:22.610Z,23.03
2018-10-06T17:10:25.655Z,22.94
2018-10-06T17:15:28.759Z,22.86
2018-10-06T17:20:31.826Z,22.76
2018-10-06T17:25:34.983Z,22.64
2018-10-06T17:30:38.066Z,22.47
2018-10-06T17:35:41.137Z,22.38
2018-10-06T17:40:44.233Z,22.35
2018-10-06T17:45:47.336Z,22.45
2018-10-06T17:50:50.599Z,22.48
2018-10-06T17:55:53.496Z,22.39
2018-10-06T18:00:56.684Z,22.23
2018-10-06T18:05:59.717Z,22.10
2018-10-06T18:11:02.817Z,21.95
2018-10-06T18:16:06.027Z,21.69
2018-10-06T18:21:11.686Z,21.55
2018-10-06T18:26:15.402Z,21.49
2018-10-06T18:31:18.652Z,21.46
2018-10-06T18:36:22.117Z,21.45
2018-10-06T18:41:25.151Z,21.43
2018-10-06T18:46:28.400Z,21.30
2018-10-06T18:51:31.544Z,21.21
2018-10-06T18:56:34.625Z,21.05
2018-10-06T19:01:37.675Z,20.94
2018-10-06T19:06:40.782Z,20.74
2018-10-06T19:11:43.910Z,20.55
2018-10-06T19:16:46.965Z,20.45
2018-10-06T19:21:50.134Z,20.42
2018-10-06T19:26:53.192Z,20.40
2018-10-06T19:31:56.255Z,20.35
2018-10-06T19:36:59.353Z,20.48
2018-10-06T19:42:02.432Z,20.69
2018-10-06T19:47:05.556Z,20.81
2018-10-06T19:52:08.607Z,20.85
2018-10-06T19:57:11.703Z,20.80
2018-10-06T20:02:14.752Z,20.72
2018-10-06T20:07:17.825Z,20.59
2018-10-06T20:12:20.993Z,20.44
2018-10-06T20:17:23.996Z,20.29
2018-10-06T20:22:27.036Z,20.29
2018-10-06T20:27:30.108Z,20.35
2018-10-06T20:32:33.183Z,20.34
2018-10-06T20:37:36.270Z,20.16
2018-10-06T20:42:39.425Z,19.95
2018-10-06T20:47:42.544Z,19.65
2018-10-06T20:52:45.595Z,19.51
2018-10-06T20:57:48.687Z,19.42
2018-10-06T21:02:51.740Z,19.31
2018-10-06T21:07:54.772Z,19.24
2018-10-06T21:12:57.853Z,19.09
2018-10-06T21:18:00.944Z,18.95
2018-10-06T21:23:03.992Z,18.83
2018-10-06T21:28:07.220Z,18.76
2018-10-06T21:33:10.278Z,18.84
2018-10-06T21:38:13.332Z,18.93
2018-10-06T21:43:16.378Z,19.01
2018-10-06T21:48:19.445Z,19.06
2018-10-06T21:53:22.572Z,19.09
2018-10-06T21:58:25.624Z,19.10
2018-10-06T22:03:28.844Z,19.07
2018-10-06T22:08:31.952Z,19.01
2018-10-06T22:13:35.056Z,18.99
2018-10-06T22:18:38.131Z,18.97
2018-10-06T22:23:41.231Z,18.91
2018-10-06T22:28:44.323Z,18.85
2018-10-06T22:33:47.375Z,18.82
2018-10-06T22:38:50.460Z,18.82
2018-10-06T22:43:53.528Z,18.78
2018-10-06T22:48:56.631Z,18.69
2018-10-06T23:05:26.201Z,18.36
2018-10-06T23:10:29.236Z,18.45
2018-10-06T23:15:32.279Z,18.53
2018-10-06T23:20:35.416Z,18.64
2018-10-06T23:25:38.462Z,18.67
2018-10-06T23:30:41.504Z,18.67
2018-10-06T23:35:44.531Z,18.60
2018-10-06T23:40:47.588Z,18.49
2018-10-06T23:45:50.646Z,18.48
2018-10-06T23:50:53.763Z,18.49
2018-10-06T23:55:56.904Z,18.46
